Maersk Vallvik — 9V8839 — position and weather

sailwx.info

Track history (hours):
 
Tides and Currents Weather Stations Pressure Air Temp Water Temp Dewpoint Dewpoint Depression Visibility Wind Speed Wind Dir Waves Ship Positions

Maersk Vallvik

Last reported at 2017-Apr-22 11:17 UTC. Time now 2017-Apr-27 22:34 UTC.
Position S 33°37' E 018°05'.

Length 180 m; draft 9 m.

Type: Ship (hazmat cat A). MMSI: 564837000.

Date/timePositionNaut miles runAvg speedWind from/ knotsBaromVisibWave heightAir tempDewpointWater temp
2017-Apr-22 11:17S 33°37' E 018°05'415.6
2017-Apr-22 11:00S 33°40' E 018°09'816.1
2017-Apr-22 10:30S 33°46' E 018°15'816.4
2017-Apr-22 10:00S 33°51' E 018°22'4 8.7
2017-Apr-22 09:30S 33°55' E 018°26'0 0.4
2017-Apr-22 08:55S 33°55' E 018°26'0 0.0
2017-Apr-22 08:28S 33°55' E 018°26'0 0.0
2017-Apr-22 07:55S 33°55' E 018°26'0 0.0
2017-Apr-22 07:25S 33°55' E 018°26'0 0.0
2017-Apr-22 06:58S 33°55' E 018°26'0 0.0
2017-Apr-22 06:28S 33°55' E 018°26'0 0.0
2017-Apr-22 05:55S 33°55' E 018°26'0 0.0
2017-Apr-22 05:25S 33°55' E 018°26'0 0.0
2017-Apr-22 04:55S 33°55' E 018°26'0 0.0
2017-Apr-22 04:28S 33°55' E 018°26'0 0.0
2017-Apr-22 03:55S 33°55' E 018°26'0 0.0
2017-Apr-22 03:28S 33°55' E 018°26'0 0.0
2017-Apr-22 02:55S 33°55' E 018°26'0 0.0
2017-Apr-22 02:28S 33°55' E 018°26'0 0.0
2017-Apr-22 01:58S 33°55' E 018°26'0 0.0
2017-Apr-22 01:28S 33°55' E 018°26'0 0.0
2017-Apr-22 00:58S 33°55' E 018°26'0 0.0
2017-Apr-22 00:28S 33°55' E 018°26'0 0.0
2017-Apr-21 23:55S 33°55' E 018°26'0 0.0
2017-Apr-21 23:28S 33°55' E 018°26'0 0.0
2017-Apr-21 22:58S 33°55' E 018°26'0 0.0
2017-Apr-21 22:25S 33°55' E 018°26'0 0.0
2017-Apr-21 21:55S 33°55' E 018°26'0 0.0
2017-Apr-21 21:28S 33°55' E 018°26'0 0.0
2017-Apr-21 20:58S 33°55' E 018°26'0 0.0
2017-Apr-21 20:28S 33°55' E 018°26'0 0.0
2017-Apr-21 19:55S 33°55' E 018°26'0 0.0
2017-Apr-21 19:22S 33°55' E 018°26'0 0.0
2017-Apr-21 18:58S 33°55' E 018°26'0 0.0
2017-Apr-21 18:28S 33°55' E 018°26'0 0.0
2017-Apr-21 17:55S 33°55' E 018°26'0 0.0
2017-Apr-21 17:28S 33°55' E 018°26'0 0.0
2017-Apr-21 16:58S 33°55' E 018°26'0 0.0
2017-Apr-21 16:28S 33°55' E 018°26'0 0.0
2017-Apr-21 15:55S 33°55' E 018°26'0 0.0
2017-Apr-21 15:28S 33°55' E 018°26'0 0.0
2017-Apr-21 14:55S 33°55' E 018°26'0 0.0
2017-Apr-21 14:25S 33°55' E 018°26'0 0.0
2017-Apr-21 13:25S 33°55' E 018°26'0 0.0
2017-Apr-21 12:58S 33°55' E 018°26'0 0.0
2017-Apr-21 12:28S 33°55' E 018°26'0 0.0
2017-Apr-21 11:52S 33°55' E 018°26'0 0.0
2017-Apr-21 11:25S 33°55' E 018°26'0 0.0
2017-Apr-21 10:58S 33°55' E 018°26'0 0.0
2017-Apr-21 10:28S 33°55' E 018°26'0 0.0
2017-Apr-21 09:58S 33°55' E 018°26'0 0.0
2017-Apr-21 09:22S 33°55' E 018°26'0 0.0
2017-Apr-21 09:00S 33°55' E 018°26'2 3.3
2017-Apr-21 08:30S 33°53' E 018°26'4 7.0
2017-Apr-21 07:58S 33°52' E 018°22'4 9.4
2017-Apr-21 07:30S 33°52' E 018°16'0 0.3
2017-Apr-21 07:00S 33°52' E 018°16'0 0.3
2017-Apr-21 06:30S 33°52' E 018°16'1 1.2
2017-Apr-21 06:00S 33°52' E 018°16'510.0
2017-Apr-21 05:30S 33°50' E 018°10'510.9
2017-Apr-21 05:00S 33°50' E 018°03'1 1.0
2017-Apr-21 04:30S 33°49' E 018°03'3 6.7
2017-Apr-21 04:00S 33°46' E 018°06'2 3.3
2017-Apr-21 03:30S 33°48' E 018°05'0 0.6
2017-Apr-21 03:00S 33°48' E 018°05'0 0.7
2017-Apr-21 02:30S 33°49' E 018°05'0 0.6
2017-Apr-21 02:00S 33°49' E 018°05'0 0.6
2017-Apr-21 01:30S 33°49' E 018°05'0 0.5
2017-Apr-21 01:00S 33°49' E 018°06'0 0.4
2017-Apr-21 00:30S 33°50' E 018°06'0 0.5
2017-Apr-21 00:00S 33°50' E 018°06'0 0.6
2017-Apr-20 23:30S 33°50' E 018°06'0 0.6
2017-Apr-20 23:00S 33°50' E 018°06'0 0.7
2017-Apr-20 22:30S 33°50' E 018°07'0 0.6
2017-Apr-20 22:00S 33°51' E 018°07'0 0.6
2017-Apr-20 21:30S 33°51' E 018°07'0 0.7
2017-Apr-20 20:59S 33°51' E 018°07'0 0.5
2017-Apr-20 20:30S 33°52' E 018°07'0 0.2
2017-Apr-20 20:00S 33°52' E 018°07'0 1.0
2017-Apr-20 19:30S 33°52' E 018°07'4 7.3
2017-Apr-20 19:00S 33°55' E 018°10'1611.2
2017-Apr-20 17:36S 34°10' E 018°15'710.6
2017-Apr-20 16:59S 34°16' E 018°15'20 9.1
2017-Apr-20 14:50S 34°31' E 018°31'410.9
2017-Apr-20 14:29S 34°32' E 018°35'  
2017-Apr-17 17:17S 30°23' E 030°50'2 6.1
2017-Apr-17 17:00S 30°21' E 030°51'3 5.8
2017-Apr-17 16:30S 30°19' E 030°53'3 5.9
2017-Apr-17 16:00S 30°16' E 030°55'3 5.6
2017-Apr-17 15:30S 30°14' E 030°57'3 5.1
2017-Apr-17 15:00S 30°12' E 030°59'5 5.3
2017-Apr-17 14:00S 30°08' E 031°02'3 5.4
2017-Apr-17 13:30S 30°05' E 031°04'3 5.9
2017-Apr-17 13:00S 30°03' E 031°06'3 5.8
2017-Apr-17 12:30S 30°01' E 031°08'3 5.6
2017-Apr-17 12:00S 29°58' E 031°09'3 5.8
2017-Apr-17 11:30S 29°55' E 031°10'4 7.5
2017-Apr-17 11:00S 29°52' E 031°08'4 8.9
2017-Apr-17 10:30S 29°53' E 031°03'1 2.3
2017-Apr-17 10:00S 29°53' E 031°02'0 0.0
2017-Apr-17 09:25S 29°53' E 031°02'0 0.0
2017-Apr-17 09:00S 29°53' E 031°02'0 0.0
2017-Apr-17 08:26S 29°53' E 031°02'0 0.0
2017-Apr-17 07:56S 29°53' E 031°02'0 0.0
2017-Apr-17 07:29S 29°53' E 031°02'0 0.0
2017-Apr-17 06:59S 29°53' E 031°02'0 0.0
2017-Apr-17 06:29S 29°53' E 031°02'0 0.0
2017-Apr-17 05:56S 29°53' E 031°02'0 0.0
2017-Apr-17 05:26S 29°53' E 031°02'0 0.0
2017-Apr-17 04:59S 29°53' E 031°02'0 0.0
2017-Apr-17 04:29S 29°53' E 031°02'0 0.0
2017-Apr-17 03:59S 29°53' E 031°02'0 0.0
2017-Apr-17 03:29S 29°53' E 031°02'0 0.0
2017-Apr-17 02:59S 29°53' E 031°02'0 0.0
2017-Apr-17 02:29S 29°53' E 031°02'0 0.0
2017-Apr-17 01:59S 29°53' E 031°02'0 0.0
2017-Apr-17 01:29S 29°53' E 031°02'0 0.0
2017-Apr-17 00:59S 29°53' E 031°02'0 0.0
2017-Apr-17 00:29S 29°53' E 031°02'0 0.0
2017-Apr-16 23:59S 29°53' E 031°02'0 0.0
2017-Apr-16 23:29S 29°53' E 031°02'0 0.0
2017-Apr-16 22:59S 29°53' E 031°02'0 0.0
2017-Apr-16 22:29S 29°53' E 031°02'0 0.0
2017-Apr-16 21:59S 29°53' E 031°02'0 0.0
2017-Apr-16 21:29S 29°53' E 031°02'0 0.0
2017-Apr-16 20:59S 29°53' E 031°02'0 0.0
2017-Apr-16 20:29S 29°53' E 031°02'0 0.0
2017-Apr-16 19:59S 29°53' E 031°02'0 0.0
2017-Apr-16 19:29S 29°53' E 031°02'0 0.0
2017-Apr-16 18:56S 29°53' E 031°02'0 0.0
2017-Apr-16 18:29S 29°53' E 031°02'0 0.0
2017-Apr-16 17:59S 29°53' E 031°02'0 0.0
2017-Apr-16 17:29S 29°53' E 031°02'0 0.0
2017-Apr-16 16:59S 29°53' E 031°02'0 0.0
2017-Apr-16 16:29S 29°53' E 031°02'0 0.0
2017-Apr-16 15:56S 29°53' E 031°02'0 0.0
2017-Apr-16 15:29S 29°53' E 031°02'0 0.0
2017-Apr-16 14:59S 29°53' E 031°02'0 0.0
2017-Apr-16 13:56S 29°53' E 031°02'0 0.0
2017-Apr-16 13:29S 29°53' E 031°02'0 0.0
2017-Apr-16 12:59S 29°53' E 031°02'0 0.0
2017-Apr-16 12:29S 29°53' E 031°02'0 0.0
2017-Apr-16 11:56S 29°53' E 031°02'0 0.0
2017-Apr-16 11:29S 29°53' E 031°02'0 0.0
2017-Apr-16 10:59S 29°53' E 031°02'0 0.0
2017-Apr-16 10:26S 29°53' E 031°02'0 0.0
2017-Apr-16 09:59S 29°53' E 031°02'0 0.0
2017-Apr-16 09:29S 29°53' E 031°02'0 0.0
2017-Apr-16 08:59S 29°53' E 031°02'0 0.0
2017-Apr-16 08:29S 29°53' E 031°02'0 0.0
2017-Apr-16 07:59S 29°53' E 031°02'0 0.0
2017-Apr-16 07:29S 29°53' E 031°02'0 0.0
2017-Apr-16 06:59S 29°53' E 031°02'1 1.1
2017-Apr-16 06:30S 29°52' E 031°02'3 6.1
2017-Apr-16 06:00S 29°51' E 031°05'2 4.1
2017-Apr-16 05:30S 29°50' E 031°07'0 0.5
2017-Apr-16 05:00S 29°50' E 031°07'1 2.8
2017-Apr-16 04:30S 29°50' E 031°09'3 6.0
2017-Apr-16 04:00S 29°51' E 031°12'510.1
2017-Apr-16 03:30S 29°54' E 031°17'2 4.2
2017-Apr-16 03:00S 29°54' E 031°19'1 2.6
2017-Apr-16 02:30S 29°55' E 031°18'1 2.6
2017-Apr-16 02:00S 29°56' E 031°18'1 2.5
2017-Apr-16 01:30S 29°57' E 031°17'510.5
2017-Apr-16 01:00S 29°59' E 031°11'713.2
2017-Apr-16 00:31S 30°03' E 031°05'612.6
2017-Apr-16 00:01S 30°09' E 031°01'713.0
2017-Apr-15 23:31S 30°14' E 030°57'713.3
2017-Apr-15 23:01S 30°20' E 030°53'713.0
2017-Apr-15 22:30S 30°25' E 030°49'612.2
2017-Apr-15 22:00S 30°30' E 030°45'  
Track history (hours):
 
Tides and Currents Weather Stations Pressure Air Temp Water Temp Dewpoint Dewpoint Depression Visibility Wind Speed Wind Dir Waves Ship Positions

Maersk Vallvik

Last reported at 2017-Apr-22 11:17 UTC. Time now 2017-Apr-27 22:34 UTC.
Position S 33°37' E 018°05'.

Length 180 m; draft 9 m.

Type: Ship (hazmat cat A). MMSI: 564837000.

Date/timePositionNaut miles runAvg speedWind from/ knotsBaromVisibWave heightAir tempDewpointWater temp
2017-Apr-22 11:17S 33°37' E 018°05'415.6
2017-Apr-22 11:00S 33°40' E 018°09'816.1
2017-Apr-22 10:30S 33°46' E 018°15'816.4
2017-Apr-22 10:00S 33°51' E 018°22'4 8.7
2017-Apr-22 09:30S 33°55' E 018°26'0 0.4
2017-Apr-22 08:55S 33°55' E 018°26'0 0.0
2017-Apr-22 08:28S 33°55' E 018°26'0 0.0
2017-Apr-22 07:55S 33°55' E 018°26'0 0.0
2017-Apr-22 07:25S 33°55' E 018°26'0 0.0
2017-Apr-22 06:58S 33°55' E 018°26'0 0.0
2017-Apr-22 06:28S 33°55' E 018°26'0 0.0
2017-Apr-22 05:55S 33°55' E 018°26'0 0.0
2017-Apr-22 05:25S 33°55' E 018°26'0 0.0
2017-Apr-22 04:55S 33°55' E 018°26'0 0.0
2017-Apr-22 04:28S 33°55' E 018°26'0 0.0
2017-Apr-22 03:55S 33°55' E 018°26'0 0.0
2017-Apr-22 03:28S 33°55' E 018°26'0 0.0
2017-Apr-22 02:55S 33°55' E 018°26'0 0.0
2017-Apr-22 02:28S 33°55' E 018°26'0 0.0
2017-Apr-22 01:58S 33°55' E 018°26'0 0.0
2017-Apr-22 01:28S 33°55' E 018°26'0 0.0
2017-Apr-22 00:58S 33°55' E 018°26'0 0.0
2017-Apr-22 00:28S 33°55' E 018°26'0 0.0
2017-Apr-21 23:55S 33°55' E 018°26'0 0.0
2017-Apr-21 23:28S 33°55' E 018°26'0 0.0
2017-Apr-21 22:58S 33°55' E 018°26'0 0.0
2017-Apr-21 22:25S 33°55' E 018°26'0 0.0
2017-Apr-21 21:55S 33°55' E 018°26'0 0.0
2017-Apr-21 21:28S 33°55' E 018°26'0 0.0
2017-Apr-21 20:58S 33°55' E 018°26'0 0.0
2017-Apr-21 20:28S 33°55' E 018°26'0 0.0
2017-Apr-21 19:55S 33°55' E 018°26'0 0.0
2017-Apr-21 19:22S 33°55' E 018°26'0 0.0
2017-Apr-21 18:58S 33°55' E 018°26'0 0.0
2017-Apr-21 18:28S 33°55' E 018°26'0 0.0
2017-Apr-21 17:55S 33°55' E 018°26'0 0.0
2017-Apr-21 17:28S 33°55' E 018°26'0 0.0
2017-Apr-21 16:58S 33°55' E 018°26'0 0.0
2017-Apr-21 16:28S 33°55' E 018°26'0 0.0
2017-Apr-21 15:55S 33°55' E 018°26'0 0.0
2017-Apr-21 15:28S 33°55' E 018°26'0 0.0
2017-Apr-21 14:55S 33°55' E 018°26'0 0.0
2017-Apr-21 14:25S 33°55' E 018°26'0 0.0
2017-Apr-21 13:25S 33°55' E 018°26'0 0.0
2017-Apr-21 12:58S 33°55' E 018°26'0 0.0
2017-Apr-21 12:28S 33°55' E 018°26'0 0.0
2017-Apr-21 11:52S 33°55' E 018°26'0 0.0
2017-Apr-21 11:25S 33°55' E 018°26'0 0.0
2017-Apr-21 10:58S 33°55' E 018°26'0 0.0
2017-Apr-21 10:28S 33°55' E 018°26'0 0.0
2017-Apr-21 09:58S 33°55' E 018°26'0 0.0
2017-Apr-21 09:22S 33°55' E 018°26'0 0.0
2017-Apr-21 09:00S 33°55' E 018°26'2 3.3
2017-Apr-21 08:30S 33°53' E 018°26'4 7.0
2017-Apr-21 07:58S 33°52' E 018°22'4 9.4
2017-Apr-21 07:30S 33°52' E 018°16'0 0.3
2017-Apr-21 07:00S 33°52' E 018°16'0 0.3
2017-Apr-21 06:30S 33°52' E 018°16'1 1.2
2017-Apr-21 06:00S 33°52' E 018°16'510.0
2017-Apr-21 05:30S 33°50' E 018°10'510.9
2017-Apr-21 05:00S 33°50' E 018°03'1 1.0
2017-Apr-21 04:30S 33°49' E 018°03'3 6.7
2017-Apr-21 04:00S 33°46' E 018°06'2 3.3
2017-Apr-21 03:30S 33°48' E 018°05'0 0.6
2017-Apr-21 03:00S 33°48' E 018°05'0 0.7
2017-Apr-21 02:30S 33°49' E 018°05'0 0.6
2017-Apr-21 02:00S 33°49' E 018°05'0 0.6
2017-Apr-21 01:30S 33°49' E 018°05'0 0.5
2017-Apr-21 01:00S 33°49' E 018°06'0 0.4
2017-Apr-21 00:30S 33°50' E 018°06'0 0.5
2017-Apr-21 00:00S 33°50' E 018°06'0 0.6
2017-Apr-20 23:30S 33°50' E 018°06'0 0.6
2017-Apr-20 23:00S 33°50' E 018°06'0 0.7
2017-Apr-20 22:30S 33°50' E 018°07'0 0.6
2017-Apr-20 22:00S 33°51' E 018°07'0 0.6
2017-Apr-20 21:30S 33°51' E 018°07'0 0.7
2017-Apr-20 20:59S 33°51' E 018°07'0 0.5
2017-Apr-20 20:30S 33°52' E 018°07'0 0.2
2017-Apr-20 20:00S 33°52' E 018°07'0 1.0
2017-Apr-20 19:30S 33°52' E 018°07'4 7.3
2017-Apr-20 19:00S 33°55' E 018°10'1611.2
2017-Apr-20 17:36S 34°10' E 018°15'710.6
2017-Apr-20 16:59S 34°16' E 018°15'20 9.1
2017-Apr-20 14:50S 34°31' E 018°31'410.9
2017-Apr-20 14:29S 34°32' E 018°35'  
2017-Apr-17 17:17S 30°23' E 030°50'2 6.1
2017-Apr-17 17:00S 30°21' E 030°51'3 5.8
2017-Apr-17 16:30S 30°19' E 030°53'3 5.9
2017-Apr-17 16:00S 30°16' E 030°55'3 5.6
2017-Apr-17 15:30S 30°14' E 030°57'3 5.1
2017-Apr-17 15:00S 30°12' E 030°59'5 5.3
2017-Apr-17 14:00S 30°08' E 031°02'3 5.4
2017-Apr-17 13:30S 30°05' E 031°04'3 5.9
2017-Apr-17 13:00S 30°03' E 031°06'3 5.8
2017-Apr-17 12:30S 30°01' E 031°08'3 5.6
2017-Apr-17 12:00S 29°58' E 031°09'3 5.8
2017-Apr-17 11:30S 29°55' E 031°10'4 7.5
2017-Apr-17 11:00S 29°52' E 031°08'4 8.9
2017-Apr-17 10:30S 29°53' E 031°03'1 2.3
2017-Apr-17 10:00S 29°53' E 031°02'0 0.0
2017-Apr-17 09:25S 29°53' E 031°02'0 0.0
2017-Apr-17 09:00S 29°53' E 031°02'0 0.0
2017-Apr-17 08:26S 29°53' E 031°02'0 0.0
2017-Apr-17 07:56S 29°53' E 031°02'0 0.0
2017-Apr-17 07:29S 29°53' E 031°02'0 0.0
2017-Apr-17 06:59S 29°53' E 031°02'0 0.0
2017-Apr-17 06:29S 29°53' E 031°02'0 0.0
2017-Apr-17 05:56S 29°53' E 031°02'0 0.0
2017-Apr-17 05:26S 29°53' E 031°02'0 0.0
2017-Apr-17 04:59S 29°53' E 031°02'0 0.0
2017-Apr-17 04:29S 29°53' E 031°02'0 0.0
2017-Apr-17 03:59S 29°53' E 031°02'0 0.0
2017-Apr-17 03:29S 29°53' E 031°02'0 0.0
2017-Apr-17 02:59S 29°53' E 031°02'0 0.0
2017-Apr-17 02:29S 29°53' E 031°02'0 0.0
2017-Apr-17 01:59S 29°53' E 031°02'0 0.0
2017-Apr-17 01:29S 29°53' E 031°02'0 0.0
2017-Apr-17 00:59S 29°53' E 031°02'0 0.0
2017-Apr-17 00:29S 29°53' E 031°02'0 0.0
2017-Apr-16 23:59S 29°53' E 031°02'0 0.0
2017-Apr-16 23:29S 29°53' E 031°02'0 0.0
2017-Apr-16 22:59S 29°53' E 031°02'0 0.0
2017-Apr-16 22:29S 29°53' E 031°02'0 0.0
2017-Apr-16 21:59S 29°53' E 031°02'0 0.0
2017-Apr-16 21:29S 29°53' E 031°02'0 0.0
2017-Apr-16 20:59S 29°53' E 031°02'0 0.0
2017-Apr-16 20:29S 29°53' E 031°02'0 0.0
2017-Apr-16 19:59S 29°53' E 031°02'0 0.0
2017-Apr-16 19:29S 29°53' E 031°02'0 0.0
2017-Apr-16 18:56S 29°53' E 031°02'0 0.0
2017-Apr-16 18:29S 29°53' E 031°02'0 0.0
2017-Apr-16 17:59S 29°53' E 031°02'0 0.0
2017-Apr-16 17:29S 29°53' E 031°02'0 0.0
2017-Apr-16 16:59S 29°53' E 031°02'0 0.0
2017-Apr-16 16:29S 29°53' E 031°02'0 0.0
2017-Apr-16 15:56S 29°53' E 031°02'0 0.0
2017-Apr-16 15:29S 29°53' E 031°02'0 0.0
2017-Apr-16 14:59S 29°53' E 031°02'0 0.0
2017-Apr-16 13:56S 29°53' E 031°02'0 0.0
2017-Apr-16 13:29S 29°53' E 031°02'0 0.0
2017-Apr-16 12:59S 29°53' E 031°02'0 0.0
2017-Apr-16 12:29S 29°53' E 031°02'0 0.0
2017-Apr-16 11:56S 29°53' E 031°02'0 0.0
2017-Apr-16 11:29S 29°53' E 031°02'0 0.0
2017-Apr-16 10:59S 29°53' E 031°02'0 0.0
2017-Apr-16 10:26S 29°53' E 031°02'0 0.0
2017-Apr-16 09:59S 29°53' E 031°02'0 0.0
2017-Apr-16 09:29S 29°53' E 031°02'0 0.0
2017-Apr-16 08:59S 29°53' E 031°02'0 0.0
2017-Apr-16 08:29S 29°53' E 031°02'0 0.0
2017-Apr-16 07:59S 29°53' E 031°02'0 0.0
2017-Apr-16 07:29S 29°53' E 031°02'0 0.0
2017-Apr-16 06:59S 29°53' E 031°02'1 1.1
2017-Apr-16 06:30S 29°52' E 031°02'3 6.1
2017-Apr-16 06:00S 29°51' E 031°05'2 4.1
2017-Apr-16 05:30S 29°50' E 031°07'0 0.5
2017-Apr-16 05:00S 29°50' E 031°07'1 2.8
2017-Apr-16 04:30S 29°50' E 031°09'3 6.0
2017-Apr-16 04:00S 29°51' E 031°12'510.1
2017-Apr-16 03:30S 29°54' E 031°17'2 4.2
2017-Apr-16 03:00S 29°54' E 031°19'1 2.6
2017-Apr-16 02:30S 29°55' E 031°18'1 2.6
2017-Apr-16 02:00S 29°56' E 031°18'1 2.5
2017-Apr-16 01:30S 29°57' E 031°17'510.5
2017-Apr-16 01:00S 29°59' E 031°11'713.2
2017-Apr-16 00:31S 30°03' E 031°05'612.6
2017-Apr-16 00:01S 30°09' E 031°01'713.0
2017-Apr-15 23:31S 30°14' E 030°57'713.3
2017-Apr-15 23:01S 30°20' E 030°53'713.0
2017-Apr-15 22:30S 30°25' E 030°49'612.2
2017-Apr-15 22:00S 30°30' E 030°45'  

Dump ship's entire track history